createdAt,value
2019-02-14T00:00:51.829Z,6.67
2019-02-14T00:03:21.839Z,6.58
2019-02-14T00:05:51.591Z,6.63
2019-02-14T00:08:21.775Z,6.64
2019-02-14T00:10:51.537Z,6.82
2019-02-14T00:13:21.356Z,6.67
2019-02-14T00:15:51.080Z,6.67
2019-02-14T00:18:20.979Z,6.61
2019-02-14T00:20:50.728Z,6.60
2019-02-14T00:23:20.473Z,6.58
2019-02-14T00:25:50.444Z,6.51
2019-02-14T00:28:20.210Z,6.75
2019-02-14T00:30:50.168Z,6.79
2019-02-14T00:33:19.921Z,6.50
2019-02-14T00:35:50.188Z,6.70
2019-02-14T00:38:20.173Z,6.76
2019-02-14T00:40:50.137Z,6.52
2019-02-14T00:43:19.886Z,6.56
2019-02-14T00:45:49.637Z,6.50
2019-02-14T00:48:19.809Z,6.53
2019-02-14T00:50:50.360Z,6.51
2019-02-14T00:53:20.000Z,6.54
2019-02-14T00:55:49.825Z,6.54
2019-02-14T00:58:19.869Z,6.25
2019-02-14T01:00:49.563Z,6.39
2019-02-14T01:03:20.080Z,6.39
2019-02-14T01:05:49.595Z,6.57
2019-02-14T01:08:19.736Z,6.52
2019-02-14T01:10:50.185Z,6.49
2019-02-14T01:13:20.320Z,6.38
2019-02-14T01:15:49.896Z,6.37
2019-02-14T01:18:20.155Z,6.61
2019-02-14T01:20:49.972Z,6.72
2019-02-14T01:23:19.890Z,6.58
2019-02-14T01:25:49.917Z,6.55
2019-02-14T01:28:19.904Z,6.39
2019-02-14T01:30:50.087Z,6.27
2019-02-14T01:33:20.186Z,6.40
2019-02-14T01:35:49.908Z,6.27
2019-02-14T01:38:20.175Z,6.38
2019-02-14T01:40:49.924Z,6.25
2019-02-14T01:43:19.947Z,6.31
2019-02-14T01:45:50.389Z,6.27
2019-02-14T01:48:20.192Z,6.11
2019-02-14T01:50:49.763Z,6.45
2019-02-14T01:53:19.718Z,6.43
2019-02-14T01:55:50.187Z,6.38
2019-02-14T01:58:19.969Z,6.14
2019-02-14T02:00:49.730Z,6.03
2019-02-14T02:03:20.491Z,5.95
2019-02-14T02:05:51.782Z,6.15
2019-02-14T02:08:21.546Z,6.05
2019-02-14T02:10:51.027Z,6.12
2019-02-14T02:13:21.795Z,6.02
2019-02-14T02:15:51.616Z,6.13
2019-02-14T02:18:21.318Z,5.94
2019-02-14T02:20:50.909Z,5.88
2019-02-14T02:23:20.690Z,6.04
2019-02-14T02:25:50.269Z,5.98
2019-02-14T02:28:19.981Z,6.04
2019-02-14T02:30:50.132Z,5.66
2019-02-14T02:33:19.950Z,5.72
2019-02-14T02:35:50.199Z,5.91
2019-02-14T02:38:20.073Z,6.14
2019-02-14T02:40:50.069Z,6.06
2019-02-14T02:43:20.433Z,6.03
2019-02-14T02:45:50.235Z,6.01
2019-02-14T02:48:19.982Z,6.15
2019-02-14T02:50:50.008Z,5.98
2019-02-14T02:53:20.046Z,5.97
2019-02-14T02:55:50.339Z,5.98
2019-02-14T02:58:20.017Z,5.93
2019-02-14T03:00:50.313Z,5.74
2019-02-14T03:03:20.019Z,5.58
2019-02-14T03:05:50.100Z,5.58
2019-02-14T03:08:20.365Z,5.31
2019-02-14T03:10:50.266Z,5.21
2019-02-14T03:13:20.062Z,5.40
2019-02-14T03:15:50.281Z,5.32
2019-02-14T03:18:20.083Z,5.34
2019-02-14T03:20:50.078Z,5.37
2019-02-14T03:23:20.075Z,5.11
2019-02-14T03:25:50.056Z,5.15
2019-02-14T03:28:20.563Z,5.34
2019-02-14T03:30:50.349Z,5.30
2019-02-14T03:33:20.360Z,5.30
2019-02-14T03:35:51.182Z,5.17
2019-02-14T03:38:20.743Z,5.22
2019-02-14T03:40:50.475Z,5.47
2019-02-14T03:43:20.712Z,5.21
2019-02-14T03:45:50.223Z,5.28
2019-02-14T03:48:20.325Z,5.44
2019-02-14T03:50:50.609Z,5.46
2019-02-14T03:53:20.389Z,5.47
2019-02-14T03:55:50.357Z,5.15
2019-02-14T03:58:20.424Z,5.33
2019-02-14T04:00:50.123Z,5.34
2019-02-14T04:03:20.398Z,5.03
2019-02-14T04:05:50.385Z,5.03
2019-02-14T04:08:20.157Z,5.04
2019-02-14T04:10:50.890Z,4.82
2019-02-14T04:13:20.633Z,4.82
2019-02-14T04:15:50.387Z,5.05
2019-02-14T04:18:20.242Z,5.12
2019-02-14T04:20:50.623Z,4.97
2019-02-14T04:23:20.159Z,4.96
2019-02-14T04:25:50.424Z,4.84
2019-02-14T04:28:20.647Z,4.90
2019-02-14T04:30:50.430Z,4.87
2019-02-14T04:33:20.670Z,5.05
2019-02-14T04:35:50.318Z,5.17
2019-02-14T04:38:20.434Z,5.08
2019-02-14T04:40:50.610Z,5.17
2019-02-14T04:43:20.903Z,5.22
2019-02-14T04:45:50.429Z,4.78
2019-02-14T04:48:20.352Z,4.81
2019-02-14T04:50:50.713Z,4.71
2019-02-14T04:53:20.926Z,5.07
2019-02-14T04:55:50.664Z,5.07
2019-02-14T04:58:21.356Z,4.94
2019-02-14T05:00:50.933Z,4.53
2019-02-14T05:03:20.446Z,4.60
2019-02-14T05:05:50.568Z,4.86
2019-02-14T05:08:20.265Z,4.82
2019-02-14T05:10:50.342Z,4.82
2019-02-14T05:13:20.533Z,4.77
2019-02-14T05:15:50.283Z,4.83
2019-02-14T05:18:20.570Z,4.81
2019-02-14T05:20:50.363Z,4.85
2019-02-14T05:23:20.879Z,4.61
2019-02-14T05:25:50.496Z,4.51
2019-02-14T05:28:20.941Z,4.66
2019-02-14T05:30:51.097Z,4.60
2019-02-14T05:33:20.809Z,4.62
2019-02-14T05:35:50.747Z,4.38
2019-02-14T05:38:20.770Z,4.66
2019-02-14T05:40:50.408Z,4.52
2019-02-14T05:43:20.862Z,4.70
2019-02-14T05:45:50.426Z,4.67
2019-02-14T05:48:20.705Z,4.58
2019-02-14T05:50:50.436Z,4.44
2019-02-14T05:53:20.469Z,4.33
2019-02-14T05:55:50.746Z,4.34
2019-02-14T05:58:20.461Z,4.51
2019-02-14T06:00:50.771Z,4.46
2019-02-14T06:03:20.625Z,4.47
2019-02-14T06:05:50.714Z,4.33
2019-02-14T06:08:21.049Z,4.48
2019-02-14T06:10:51.046Z,4.48
2019-02-14T06:13:20.776Z,4.49
2019-02-14T06:15:50.532Z,4.38
2019-02-14T06:18:20.633Z,4.34
2019-02-14T06:20:50.681Z,4.53
2019-02-14T06:23:20.466Z,4.44
2019-02-14T06:25:50.667Z,4.52
2019-02-14T06:28:20.444Z,4.35
2019-02-14T06:30:50.686Z,4.46
2019-02-14T06:33:20.492Z,4.43
2019-02-14T06:35:50.481Z,4.58
2019-02-14T06:38:20.864Z,4.47
2019-02-14T06:40:51.020Z,4.63
2019-02-14T06:43:20.568Z,4.48
2019-02-14T06:45:51.261Z,4.59
2019-02-14T06:48:20.738Z,4.49
2019-02-14T06:50:50.817Z,4.34
2019-02-14T06:53:20.606Z,4.49
2019-02-14T06:55:50.864Z,4.32
2019-02-14T06:58:20.589Z,4.33
2019-02-14T07:00:50.856Z,4.60
2019-02-14T07:03:21.007Z,4.46
2019-02-14T07:05:50.624Z,4.57
2019-02-14T07:08:20.736Z,4.53
2019-02-14T07:10:51.263Z,4.79
2019-02-14T07:13:20.770Z,4.71
2019-02-14T07:15:51.398Z,4.99
2019-02-14T07:18:21.177Z,4.97
2019-02-14T07:20:50.822Z,4.77
2019-02-14T07:23:21.113Z,4.76
2019-02-14T07:25:50.656Z,4.81
2019-02-14T07:28:20.656Z,4.51
2019-02-14T07:30:51.046Z,4.82
2019-02-14T07:33:20.695Z,4.77
2019-02-14T07:35:50.709Z,4.92
2019-02-14T07:38:21.017Z,5.12
2019-02-14T07:40:50.920Z,5.12
2019-02-14T07:43:21.442Z,5.26
2019-02-14T07:45:51.123Z,5.39
2019-02-14T07:48:20.865Z,5.27
2019-02-14T07:50:51.216Z,5.48
2019-02-14T07:53:21.234Z,5.72
2019-02-14T07:55:50.921Z,5.84
2019-02-14T07:58:21.073Z,5.64
2019-02-14T08:00:51.037Z,5.69
2019-02-14T08:03:21.564Z,5.63
2019-02-14T08:05:51.082Z,5.97
2019-02-14T08:08:22.140Z,6.19
2019-02-14T08:10:51.959Z,6.19
2019-02-14T08:13:21.472Z,6.51
2019-02-14T08:15:51.119Z,6.56
2019-02-14T08:18:21.340Z,6.71
2019-02-14T08:20:51.921Z,6.80
2019-02-14T08:23:21.668Z,6.63
2019-02-14T08:25:51.436Z,6.65
2019-02-14T08:28:21.190Z,6.76
2019-02-14T08:30:50.974Z,7.10
2019-02-14T08:33:21.247Z,7.48
2019-02-14T08:35:51.209Z,7.02
2019-02-14T08:38:21.633Z,7.00
2019-02-14T08:40:51.228Z,7.35
2019-02-14T08:43:21.371Z,7.48
2019-02-14T08:45:51.101Z,7.61
2019-02-14T08:48:21.119Z,7.82
2019-02-14T08:50:51.181Z,7.91
2019-02-14T08:53:20.927Z,8.13
2019-02-14T08:55:50.481Z,8.73
2019-02-14T08:58:20.833Z,8.46
2019-02-14T09:00:50.325Z,7.91
2019-02-14T09:03:19.873Z,8.08
2019-02-14T09:05:49.419Z,7.61
2019-02-14T09:08:19.172Z,7.97
2019-02-14T09:10:48.918Z,7.87
2019-02-14T09:13:18.715Z,8.46
2019-02-14T09:15:48.686Z,8.77
2019-02-14T09:18:19.361Z,8.46
2019-02-14T09:20:49.111Z,8.39
2019-02-14T09:23:18.874Z,8.86
2019-02-14T09:25:48.686Z,8.99
2019-02-14T09:28:18.207Z,9.09
2019-02-14T09:30:47.699Z,9.04
2019-02-14T09:33:17.540Z,9.29
2019-02-14T09:35:47.043Z,10.06
2019-02-14T09:38:16.813Z,10.06
2019-02-14T09:40:46.536Z,10.18
2019-02-14T09:43:16.656Z,10.00
2019-02-14T09:45:46.418Z,10.39
2019-02-14T09:48:16.427Z,10.17
2019-02-14T09:50:45.928Z,10.13
2019-02-14T09:53:15.926Z,9.52
2019-02-14T09:55:45.700Z,9.61
2019-02-14T09:58:15.498Z,10.16
2019-02-14T10:00:46.268Z,10.77
2019-02-14T10:03:16.297Z,10.59
2019-02-14T10:05:46.585Z,10.59
2019-02-14T10:08:16.103Z,10.91
2019-02-14T10:10:46.195Z,10.37
2019-02-14T10:13:15.969Z,10.55
2019-02-14T10:15:45.470Z,10.90
2019-02-14T10:18:15.001Z,11.08
2019-02-14T10:20:44.821Z,10.77
2019-02-14T10:23:14.410Z,10.75
2019-02-14T10:25:43.953Z,10.29
2019-02-14T10:28:13.457Z,10.45
2019-02-14T10:30:43.676Z,10.97
2019-02-14T10:33:15.139Z,11.48
2019-02-14T10:35:45.202Z,10.89
2019-02-14T10:38:22.024Z,11.18
2019-02-14T10:40:45.969Z,11.14
2019-02-14T10:43:15.755Z,10.70
2019-02-14T10:45:45.587Z,10.86
2019-02-14T10:48:15.101Z,11.11
2019-02-14T10:50:44.606Z,11.16
2019-02-14T10:53:14.630Z,10.88
2019-02-14T10:55:44.496Z,11.23
2019-02-14T10:58:14.705Z,11.29
2019-02-14T11:00:45.301Z,11.26
2019-02-14T11:03:15.079Z,11.35
2019-02-14T11:05:44.846Z,11.49
2019-02-14T11:08:14.649Z,11.82
2019-02-14T11:10:45.723Z,12.13
2019-02-14T11:13:15.514Z,12.16
2019-02-14T11:15:45.563Z,12.58
2019-02-14T11:18:15.533Z,12.19
2019-02-14T11:20:46.244Z,11.45
2019-02-14T11:23:15.745Z,11.13
2019-02-14T11:25:45.285Z,11.50
2019-02-14T11:28:15.127Z,12.17
2019-02-14T11:30:46.164Z,12.17
2019-02-14T11:33:17.517Z,12.55
2019-02-14T11:35:47.018Z,13.21
2019-02-14T11:38:16.597Z,12.64
2019-02-14T11:40:46.340Z,12.92
2019-02-14T11:43:16.386Z,12.76
2019-02-14T11:45:45.879Z,12.28
2019-02-14T11:48:15.399Z,11.38
2019-02-14T11:50:45.369Z,11.43
2019-02-14T11:53:15.097Z,11.90
2019-02-14T11:55:45.671Z,11.61
2019-02-14T11:58:15.176Z,12.15
2019-02-14T12:00:46.317Z,11.85
2019-02-14T12:03:15.866Z,11.95
2019-02-14T12:05:45.662Z,11.68
2019-02-14T12:08:15.646Z,11.91
2019-02-14T12:10:45.502Z,12.47
2019-02-14T12:13:15.338Z,12.51
2019-02-14T12:15:45.351Z,12.60
2019-02-14T12:18:14.893Z,12.80
2019-02-14T12:20:47.933Z,12.39
2019-02-14T12:23:17.728Z,12.69
2019-02-14T12:25:47.324Z,12.84
2019-02-14T12:28:16.861Z,12.55
2019-02-14T12:30:48.728Z,12.67
2019-02-14T12:33:19.163Z,12.46
2019-02-14T12:35:48.672Z,12.12
2019-02-14T12:38:19.748Z,12.77
2019-02-14T12:40:51.355Z,12.81
2019-02-14T12:43:22.202Z,12.69
2019-02-14T12:45:51.723Z,13.21
2019-02-14T12:48:21.423Z,12.43
2019-02-14T12:50:51.013Z,12.26
2019-02-14T12:53:21.014Z,12.18
2019-02-14T12:55:50.832Z,12.55
2019-02-14T12:58:20.336Z,12.27
2019-02-14T13:00:50.484Z,12.97
2019-02-14T13:03:20.431Z,13.14
2019-02-14T13:05:50.255Z,12.68
2019-02-14T13:08:19.761Z,13.21
2019-02-14T13:10:49.282Z,13.35
2019-02-14T13:13:19.056Z,13.34
2019-02-14T13:15:49.025Z,12.88
2019-02-14T13:18:18.535Z,13.49
2019-02-14T13:20:48.103Z,13.40
2019-02-14T13:23:18.152Z,13.46
2019-02-14T13:25:47.931Z,13.68
2019-02-14T13:28:17.434Z,13.37
2019-02-14T13:30:48.020Z,13.74
2019-02-14T13:33:18.478Z,13.29
2019-02-14T13:35:48.031Z,13.62
2019-02-14T13:38:17.539Z,13.40
2019-02-14T13:40:47.066Z,13.40
2019-02-14T13:43:16.683Z,13.31
2019-02-14T13:45:46.243Z,13.54
2019-02-14T13:48:16.334Z,13.60
2019-02-14T13:50:46.455Z,13.09
2019-02-14T13:53:16.262Z,13.31
2019-02-14T13:55:46.477Z,13.06
2019-02-14T13:58:16.499Z,13.33
2019-02-14T14:00:46.317Z,13.17
2019-02-14T14:03:16.276Z,13.26
2019-02-14T14:05:46.459Z,13.40
2019-02-14T14:08:16.502Z,13.09
2019-02-14T14:10:46.623Z,13.11
2019-02-14T14:13:16.308Z,12.94
2019-02-14T14:15:46.412Z,12.99
2019-02-14T14:18:16.209Z,13.09
2019-02-14T14:20:49.066Z,13.09
2019-02-14T14:23:19.965Z,12.84
2019-02-14T14:25:49.680Z,12.97
2019-02-14T14:28:19.267Z,12.92
2019-02-14T14:30:49.588Z,12.92
2019-02-14T14:33:19.324Z,12.56
2019-02-14T14:35:48.833Z,12.86
2019-02-14T14:38:18.719Z,12.67
2019-02-14T14:40:48.458Z,12.68
2019-02-14T14:43:46.453Z,12.54
2019-02-14T14:46:28.119Z,12.60
2019-02-14T14:48:57.875Z,12.74
2019-02-14T14:51:27.423Z,12.73
2019-02-14T14:53:57.095Z,12.61
2019-02-14T14:56:26.624Z,12.84
2019-02-14T14:58:56.661Z,12.69
2019-02-14T15:01:26.253Z,12.71
2019-02-14T15:03:56.140Z,12.65
2019-02-14T15:06:25.688Z,12.37
2019-02-14T15:08:55.508Z,12.58
2019-02-14T15:11:25.028Z,12.57
2019-02-14T15:13:54.722Z,12.64
2019-02-14T15:16:24.461Z,12.64
2019-02-14T15:18:54.478Z,12.56
2019-02-14T15:21:24.111Z,12.34
2019-02-14T15:23:54.162Z,12.07
2019-02-14T15:26:23.972Z,12.08
2019-02-14T15:28:53.516Z,12.19
2019-02-14T15:31:23.680Z,12.21
2019-02-14T15:33:53.243Z,12.05
2019-02-14T15:36:24.340Z,11.93
2019-02-14T15:38:54.532Z,11.88
2019-02-14T15:41:24.472Z,12.00
2019-02-14T15:43:54.019Z,12.00
2019-02-14T15:46:23.621Z,11.95
2019-02-14T15:48:53.753Z,11.72
2019-02-14T15:51:23.379Z,11.76
2019-02-14T15:53:53.718Z,11.62
2019-02-14T15:56:23.392Z,11.62
2019-02-14T15:58:55.351Z,11.49
2019-02-14T16:01:24.969Z,11.42
2019-02-14T16:03:54.492Z,11.42
2019-02-14T16:06:25.621Z,11.43
2019-02-14T16:08:55.584Z,11.42
2019-02-14T16:11:25.157Z,11.31
2019-02-14T16:13:57.149Z,11.26
2019-02-14T16:16:27.020Z,11.18
2019-02-14T16:18:56.519Z,11.15
2019-02-14T16:21:27.789Z,11.08
2019-02-14T16:23:57.637Z,11.09
2019-02-14T16:26:28.135Z,11.07
2019-02-14T16:28:59.843Z,11.02
2019-02-14T16:31:29.098Z,10.86
2019-02-14T16:33:58.971Z,10.90
2019-02-14T16:36:28.800Z,10.84
2019-02-14T16:38:59.332Z,10.75
2019-02-14T16:41:30.320Z,10.78
2019-02-14T16:43:59.804Z,10.63
2019-02-14T16:46:30.138Z,10.59
2019-02-14T16:49:00.388Z,10.98
2019-02-14T16:51:30.514Z,10.91
2019-02-14T16:54:01.019Z,11.08
2019-02-14T16:56:31.494Z,11.00
2019-02-14T16:59:01.537Z,11.11
2019-02-14T17:01:31.466Z,11.09
2019-02-14T17:04:01.379Z,10.97
2019-02-14T17:06:31.648Z,11.11
2019-02-14T17:09:01.455Z,11.19
2019-02-14T17:11:32.479Z,11.42
2019-02-14T17:14:02.305Z,11.56
2019-02-14T17:16:32.413Z,11.68
2019-02-14T17:19:02.257Z,11.31
2019-02-14T17:21:32.409Z,11.20
2019-02-14T17:24:02.517Z,11.27
2019-02-14T17:26:32.325Z,10.85
2019-02-14T17:29:02.575Z,10.49
2019-02-14T17:31:32.353Z,10.29
2019-02-14T17:34:03.322Z,10.41
2019-02-14T17:36:32.856Z,10.34
2019-02-14T17:39:03.739Z,10.39
2019-02-14T17:41:34.183Z,10.34
2019-02-14T17:44:04.465Z,10.16
2019-02-14T17:46:35.836Z,10.29
2019-02-14T17:49:05.778Z,10.28
2019-02-14T17:51:35.398Z,10.38
2019-02-14T17:54:05.259Z,10.32
2019-02-14T17:56:34.815Z,10.29
2019-02-14T17:59:05.263Z,10.12
2019-02-14T18:01:38.501Z,9.89
2019-02-14T18:04:08.114Z,10.06
2019-02-14T18:06:38.971Z,10.10
2019-02-14T18:09:09.787Z,10.22
2019-02-14T18:11:39.373Z,10.20
2019-02-14T18:14:09.072Z,10.06
2019-02-14T18:16:38.584Z,9.95
2019-02-14T18:19:09.277Z,9.88
2019-02-14T18:21:39.176Z,9.86
2019-02-14T18:24:08.799Z,9.90
2019-02-14T18:26:38.577Z,9.66
2019-02-14T18:29:08.420Z,9.81
2019-02-14T18:31:38.014Z,9.58
2019-02-14T18:34:08.917Z,9.70
2019-02-14T18:36:38.477Z,9.60
2019-02-14T18:39:11.215Z,9.72
2019-02-14T18:41:40.840Z,9.35
2019-02-14T18:44:11.318Z,9.22
2019-02-14T18:46:41.124Z,9.59
2019-02-14T18:49:10.925Z,9.85
2019-02-14T18:51:41.182Z,9.93
2019-02-14T18:54:10.781Z,10.30
2019-02-14T18:56:40.651Z,9.60
2019-02-14T18:59:10.900Z,10.01
2019-02-14T19:01:40.904Z,9.88
2019-02-14T19:04:10.531Z,9.83
2019-02-14T19:06:40.145Z,9.36
2019-02-14T19:09:10.876Z,9.14
2019-02-14T19:11:40.484Z,9.03
2019-02-14T19:14:10.094Z,8.68
2019-02-14T19:16:39.820Z,8.64
2019-02-14T19:19:09.888Z,8.61
2019-02-14T19:21:39.343Z,8.71
2019-02-14T19:24:09.135Z,8.52
2019-02-14T19:26:38.807Z,8.56
2019-02-14T19:29:08.538Z,8.62
2019-02-14T19:31:38.142Z,8.34
2019-02-14T19:34:08.234Z,8.29
2019-02-14T19:36:37.769Z,8.27
2019-02-14T19:39:07.355Z,8.07
2019-02-14T19:41:36.932Z,7.94
2019-02-14T19:44:06.566Z,8.04
2019-02-14T19:46:36.132Z,8.01
2019-02-14T19:49:05.800Z,8.00
2019-02-14T19:51:35.494Z,7.95
2019-02-14T19:54:05.385Z,7.91
2019-02-14T19:56:35.241Z,7.93
2019-02-14T19:59:05.233Z,7.97
2019-02-14T20:01:34.965Z,7.91
2019-02-14T20:04:04.660Z,7.97
2019-02-14T20:06:34.351Z,7.88
2019-02-14T20:09:04.806Z,7.71
2019-02-14T20:11:37.351Z,7.61
2019-02-14T20:14:08.876Z,7.62
2019-02-14T20:16:38.464Z,7.66
2019-02-14T20:19:08.476Z,7.68
2019-02-14T20:21:38.138Z,7.77
2019-02-14T20:24:10.803Z,7.69
2019-02-14T20:26:41.127Z,7.64
2019-02-14T20:29:10.765Z,7.61
2019-02-14T20:31:41.471Z,7.76
2019-02-14T20:34:11.334Z,7.36
2019-02-14T20:36:40.936Z,7.28
2019-02-14T20:39:11.553Z,7.49
2019-02-14T20:41:45.973Z,7.45
2019-02-14T20:44:13.780Z,7.40
2019-02-14T20:46:43.352Z,7.19
2019-02-14T20:49:12.912Z,7.38
2019-02-14T20:51:42.805Z,7.26
2019-02-14T20:54:12.714Z,7.04
2019-02-14T20:56:42.379Z,7.31
2019-02-14T20:59:12.348Z,7.02
2019-02-14T21:01:41.930Z,6.98
2019-02-14T21:04:12.128Z,6.77
2019-02-14T21:06:42.873Z,6.86
2019-02-14T21:09:13.461Z,6.84
2019-02-14T21:11:43.059Z,6.67
2019-02-14T21:14:12.570Z,6.51
2019-02-14T21:16:42.845Z,6.17
2019-02-14T21:19:12.870Z,6.12
2019-02-14T21:21:42.534Z,6.06
2019-02-14T21:24:12.369Z,6.30
2019-02-14T21:26:41.928Z,6.29
2019-02-14T21:29:11.909Z,6.46
2019-02-14T21:31:42.191Z,6.13
2019-02-14T21:34:12.551Z,6.31
2019-02-14T21:36:42.302Z,6.52
2019-02-14T21:39:12.137Z,6.57
2019-02-14T21:41:41.758Z,6.44
2019-02-14T21:44:11.644Z,6.31
2019-02-14T21:46:41.320Z,6.50
2019-02-14T21:49:11.155Z,6.40
2019-02-14T21:51:40.923Z,6.48
2019-02-14T21:54:11.277Z,6.22
2019-02-14T21:56:40.935Z,6.27
2019-02-14T21:59:10.806Z,5.69
2019-02-14T22:01:41.391Z,5.24
2019-02-14T22:04:11.944Z,5.05
2019-02-14T22:06:41.462Z,4.76
2019-02-14T22:09:11.081Z,4.75
2019-02-14T22:11:40.922Z,4.75
2019-02-14T22:14:10.427Z,5.07
2019-02-14T22:16:40.242Z,4.94
2019-02-14T22:19:10.016Z,4.78
2019-02-14T22:21:39.741Z,4.61
2019-02-14T22:24:09.225Z,4.47
2019-02-14T22:26:38.748Z,4.47
2019-02-14T22:29:08.794Z,4.42
2019-02-14T22:31:38.653Z,4.46
2019-02-14T22:34:08.487Z,4.41
2019-02-14T22:36:38.280Z,4.40
2019-02-14T22:39:08.229Z,4.78
2019-02-14T22:41:38.759Z,4.86
2019-02-14T22:44:08.769Z,4.58
2019-02-14T22:46:38.499Z,4.22
2019-02-14T22:49:08.180Z,4.22
2019-02-14T22:51:37.715Z,4.07
2019-02-14T22:54:07.271Z,4.07
2019-02-14T22:56:37.093Z,4.10
2019-02-14T22:59:06.893Z,4.05
2019-02-14T23:01:36.794Z,3.96
2019-02-14T23:04:06.632Z,3.93
2019-02-14T23:06:36.461Z,3.97
2019-02-14T23:09:08.332Z,4.06
2019-02-14T23:11:39.043Z,3.95
2019-02-14T23:14:09.136Z,3.86
2019-02-14T23:16:38.660Z,3.99
2019-02-14T23:19:08.873Z,4.04
2019-02-14T23:21:38.377Z,3.92
2019-02-14T23:24:07.884Z,4.03
2019-02-14T23:26:37.614Z,4.01
2019-02-14T23:29:07.156Z,4.14
2019-02-14T23:31:36.644Z,3.85
2019-02-14T23:34:06.737Z,3.73
2019-02-14T23:36:36.256Z,3.80
2019-02-14T23:39:07.100Z,3.88
2019-02-14T23:41:37.782Z,4.18
2019-02-14T23:44:07.518Z,4.28
2019-02-14T23:46:37.023Z,4.13
2019-02-14T23:49:06.617Z,4.26
2019-02-14T23:51:36.105Z,4.29
2019-02-14T23:54:06.077Z,4.27
2019-02-14T23:56:35.595Z,4.22
2019-02-14T23:59:05.363Z,3.98
